sensor_id;sensor_type;location;lat;lon;timestamp;pressure;altitude;pressure_sealevel;temperature;humidity
22653;BME280;11493;43.344;26.226;2023-05-29T00:01:40;99052.44;;;17.00;100.00
22653;BME280;11493;43.344;26.226;2023-05-29T00:04:07;99078.91;;;17.14;100.00
22653;BME280;11493;43.344;26.226;2023-05-29T00:06:35;99080.53;;;17.15;100.00
22653;BME280;11493;43.344;26.226;2023-05-29T00:09:03;99092.16;;;17.20;100.00
22653;BME280;11493;43.344;26.226;2023-05-29T00:11:31;99092.09;;;17.17;100.00
22653;BME280;11493;43.344;26.226;2023-05-29T00:13:58;99088.41;;;17.13;100.00
22653;BME280;11493;43.344;26.226;2023-05-29T00:16:25;99083.31;;;17.15;100.00
22653;BME280;11493;43.344;26.226;2023-05-29T00:18:53;99072.91;;;17.12;100.00
22653;BME280;11493;43.344;26.226;2023-05-29T00:21:20;99094.13;;;17.20;100.00
22653;BME280;11493;43.344;26.226;2023-05-29T00:23:48;99088.56;;;17.20;100.00
22653;BME280;11493;43.344;26.226;2023-05-29T00:26:15;99086.09;;;17.15;100.00
22653;BME280;11493;43.344;26.226;2023-05-29T00:28:50;99089.66;;;17.15;100.00
22653;BME280;11493;43.344;26.226;2023-05-29T00:31:17;99088.41;;;17.13;100.00
22653;BME280;11493;43.344;26.226;2023-05-29T00:33:44;99090.91;;;17.18;100.00
22653;BME280;11493;43.344;26.226;2023-05-29T00:36:11;99086.81;;;17.12;100.00
22653;BME280;11493;43.344;26.226;2023-05-29T00:38:39;99088.41;;;17.13;100.00
22653;BME280;11493;43.344;26.226;2023-05-29T00:41:14;99101.97;;;17.14;100.00
22653;BME280;11493;43.344;26.226;2023-05-29T00:43:43;99071.91;;;17.00;100.00
22653;BME280;11493;43.344;26.226;2023-05-29T00:46:13;99092.72;;;17.10;100.00
22653;BME280;11493;43.344;26.226;2023-05-29T00:48:41;99084.75;;;17.08;100.00
22653;BME280;11493;43.344;26.226;2023-05-29T00:51:10;99090.84;;;17.14;100.00
22653;BME280;11493;43.344;26.226;2023-05-29T00:53:40;99089.31;;;17.17;100.00
22653;BME280;11493;43.344;26.226;2023-05-29T00:56:09;99085.34;;;17.18;100.00
22653;BME280;11493;43.344;26.226;2023-05-29T00:58:37;99072.34;;;17.02;100.00
22653;BME280;11493;43.344;26.226;2023-05-29T01:01:04;99074.84;;;17.07;100.00
22653;BME280;11493;43.344;26.226;2023-05-29T01:03:33;99083.19;;;17.07;100.00
22653;BME280;11493;43.344;26.226;2023-05-29T01:06:00;99025.47;;;16.66;100.00
22653;BME280;11493;43.344;26.226;2023-05-29T01:08:27;99068.25;;;16.96;100.00
22653;BME280;11493;43.344;26.226;2023-05-29T01:11:00;99073.88;;;17.00;100.00
22653;BME280;11493;43.344;26.226;2023-05-29T01:13:34;99080.25;;;17.00;100.00
22653;BME280;11493;43.344;26.226;2023-05-29T01:16:26;99073.03;;;16.80;100.00
22653;BME280;11493;43.344;26.226;2023-05-29T01:24:44;99068.47;;;16.72;100.00
22653;BME280;11493;43.344;26.226;2023-05-29T01:27:17;99074.19;;;16.79;100.00
22653;BME280;11493;43.344;26.226;2023-05-29T01:29:46;99063.66;;;16.69;100.00
22653;BME280;11493;43.344;26.226;2023-05-29T01:32:19;99089.25;;;16.78;100.00
22653;BME280;11493;43.344;26.226;2023-05-29T01:34:47;99076.16;;;16.79;100.00
22653;BME280;11493;43.344;26.226;2023-05-29T01:37:13;99074.19;;;16.79;100.00
22653;BME280;11493;43.344;26.226;2023-05-29T01:39:40;99074.13;;;16.75;100.00
22653;BME280;11493;43.344;26.226;2023-05-29T01:42:08;99074.19;;;16.79;100.00
22653;BME280;11493;43.344;26.226;2023-05-29T01:44:36;99062.91;;;16.72;100.00
22653;BME280;11493;43.344;26.226;2023-05-29T01:47:05;99075.66;;;16.73;100.00
22653;BME280;11493;43.344;26.226;2023-05-29T01:49:34;99068.03;;;16.70;100.00
22653;BME280;11493;43.344;26.226;2023-05-29T01:52:04;99068.47;;;16.72;100.00
22653;BME280;11493;43.344;26.226;2023-05-29T01:54:31;99072.78;;;16.69;100.00
22653;BME280;11493;43.344;26.226;2023-05-29T01:56:59;99058.53;;;16.71;100.00
22653;BME280;11493;43.344;26.226;2023-05-29T01:59:27;99064.34;;;16.82;100.00
22653;BME280;11493;43.344;26.226;2023-05-29T02:01:56;99033.69;;;16.62;100.00
22653;BME280;11493;43.344;26.226;2023-05-29T02:04:23;99059.88;;;16.77;100.00
22653;BME280;11493;43.344;26.226;2023-05-29T02:06:50;99071.13;;;16.84;100.00
22653;BME280;11493;43.344;26.226;2023-05-29T02:09:20;99057.53;;;16.79;100.00
22653;BME280;11493;43.344;26.226;2023-05-29T02:11:49;99069.53;;;16.83;100.00
22653;BME280;11493;43.344;26.226;2023-05-29T02:14:16;99064.78;;;16.84;100.00
22653;BME280;11493;43.344;26.226;2023-05-29T02:16:43;99071.13;;;16.84;100.00
22653;BME280;11493;43.344;26.226;2023-05-29T02:19:13;99049.03;;;16.72;100.00
22653;BME280;11493;43.344;26.226;2023-05-29T02:21:40;99073.47;;;16.82;100.00
22653;BME280;11493;43.344;26.226;2023-05-29T02:24:08;99085.75;;;16.81;100.00
22653;BME280;11493;43.344;26.226;2023-05-29T02:26:35;99084.06;;;16.61;100.00
22653;BME280;11493;43.344;26.226;2023-05-29T02:29:05;99079.69;;;16.44;100.00
22653;BME280;11493;43.344;26.226;2023-05-29T02:31:32;99079.28;;;16.26;100.00
22653;BME280;11493;43.344;26.226;2023-05-29T02:33:59;99088.31;;;16.23;100.00
22653;BME280;11493;43.344;26.226;2023-05-29T02:36:26;99079.88;;;16.04;100.00
22653;BME280;11493;43.344;26.226;2023-05-29T02:38:57;99075.84;;;15.86;100.00
22653;BME280;11493;43.344;26.226;2023-05-29T02:41:24;99076.81;;;15.77;100.00
22653;BME280;11493;43.344;26.226;2023-05-29T02:43:51;99092.75;;;15.81;100.00
22653;BME280;11493;43.344;26.226;2023-05-29T02:46:20;99093.56;;;15.81;100.00
22653;BME280;11493;43.344;26.226;2023-05-29T02:48:48;99083.88;;;15.75;100.00
22653;BME280;11493;43.344;26.226;2023-05-29T02:51:15;99087.91;;;15.77;100.00
22653;BME280;11493;43.344;26.226;2023-05-29T02:53:42;99097.94;;;15.82;100.00
22653;BME280;11493;43.344;26.226;2023-05-29T02:56:09;99087.66;;;15.83;100.00
22653;BME280;11493;43.344;26.226;2023-05-29T02:58:36;99077.34;;;15.83;100.00
22653;BME280;11493;43.344;26.226;2023-05-29T03:01:03;99090.41;;;15.83;100.00
22653;BME280;11493;43.344;26.226;2023-05-29T03:03:32;99090.41;;;15.83;100.00
22653;BME280;11493;43.344;26.226;2023-05-29T03:06:02;99089.25;;;15.84;100.00
22653;BME280;11493;43.344;26.226;2023-05-29T03:08:29;99081.28;;;15.82;100.00
22653;BME280;11493;43.344;26.226;2023-05-29T03:10:57;99070.56;;;15.81;100.00
22653;BME280;11493;43.344;26.226;2023-05-29T03:13:24;99088.19;;;15.88;100.00
22653;BME280;11493;43.344;26.226;2023-05-29T03:16:02;99088.53;;;15.87;100.00
22653;BME280;11493;43.344;26.226;2023-05-29T03:18:30;99085.78;;;15.87;100.00
22653;BME280;11493;43.344;26.226;2023-05-29T03:20:59;99088.75;;;15.94;100.00
22653;BME280;11493;43.344;26.226;2023-05-29T03:23:26;99069.13;;;15.87;100.00
22653;BME280;11493;43.344;26.226;2023-05-29T03:25:54;99090.34;;;15.95;100.00
22653;BME280;11493;43.344;26.226;2023-05-29T03:28:23;99094.03;;;15.99;100.00
22653;BME280;11493;43.344;26.226;2023-05-29T03:30:51;99098.88;;;16.02;100.00
22653;BME280;11493;43.344;26.226;2023-05-29T03:33:20;99090.72;;;16.09;100.00
22653;BME280;11493;43.344;26.226;2023-05-29T03:36:00;99092.16;;;16.03;100.00
22653;BME280;11493;43.344;26.226;2023-05-29T03:38:27;99092.25;;;16.06;100.00
22653;BME280;11493;43.344;26.226;2023-05-29T03:40:58;99102.28;;;16.11;100.00
22653;BME280;11493;43.344;26.226;2023-05-29T03:43:25;99108.28;;;16.13;100.00
22653;BME280;11493;43.344;26.226;2023-05-29T03:45:52;99092.97;;;16.03;100.00
22653;BME280;11493;43.344;26.226;2023-05-29T03:48:25;99105.94;;;16.15;100.00
22653;BME280;11493;43.344;26.226;2023-05-29T03:50:52;99099.59;;;16.15;100.00
22653;BME280;11493;43.344;26.226;2023-05-29T03:53:25;99106.03;;;16.19;100.00
22653;BME280;11493;43.344;26.226;2023-05-29T03:55:52;99104.88;;;16.20;100.00
22653;BME280;11493;43.344;26.226;2023-05-29T03:58:20;99082.22;;;16.02;100.00
22653;BME280;11493;43.344;26.226;2023-05-29T04:00:47;99114.47;;;16.22;100.00
22653;BME280;11493;43.344;26.226;2023-05-29T04:03:21;99106.03;;;16.19;100.00
22653;BME280;11493;43.344;26.226;2023-05-29T04:05:49;99093.31;;;16.18;100.00
22653;BME280;11493;43.344;26.226;2023-05-29T04:08:16;99103.44;;;16.26;100.00
22653;BME280;11493;43.344;26.226;2023-05-29T04:10:43;99092.16;;;16.19;100.00
22653;BME280;11493;43.344;26.226;2023-05-29T04:13:11;99107.84;;;16.27;100.00
22653;BME280;11493;43.344;26.226;2023-05-29T04:15:38;99107.84;;;16.27;100.00
22653;BME280;11493;43.344;26.226;2023-05-29T04:18:05;99094.69;;;16.24;100.00
22653;BME280;11493;43.344;26.226;2023-05-29T04:20:34;99123.13;;;16.36;100.00
22653;BME280;11493;43.344;26.226;2023-05-29T04:23:02;99121.16;;;16.37;100.00
22653;BME280;11493;43.344;26.226;2023-05-29T04:25:29;99100.31;;;16.27;100.00
22653;BME280;11493;43.344;26.226;2023-05-29T04:27:56;99110.06;;;16.37;100.00
22653;BME280;11493;43.344;26.226;2023-05-29T04:30:23;99096.09;;;16.33;100.00
22653;BME280;11493;43.344;26.226;2023-05-29T04:32:51;99111.84;;;16.45;100.00
22653;BME280;11493;43.344;26.226;2023-05-29T04:35:19;99103.59;;;16.49;100.00
22653;BME280;11493;43.344;26.226;2023-05-29T04:37:55;99094.81;;;16.47;100.00
22653;BME280;11493;43.344;26.226;2023-05-29T04:40:25;99107.44;;;16.60;100.00
22653;BME280;11493;43.344;26.226;2023-05-29T04:42:53;99109.88;;;16.61;100.00
22653;BME280;11493;43.344;26.226;2023-05-29T04:45:22;99088.56;;;16.50;100.00
22653;BME280;11493;43.344;26.226;2023-05-29T04:47:51;99117.22;;;16.69;100.00
22653;BME280;11493;43.344;26.226;2023-05-29T04:50:22;99119.38;;;16.76;100.00
22653;BME280;11493;43.344;26.226;2023-05-29T04:52:51;99117.03;;;16.78;100.00
22653;BME280;11493;43.344;26.226;2023-05-29T04:55:18;99114.72;;;16.80;100.00
22653;BME280;11493;43.344;26.226;2023-05-29T04:57:46;99108.25;;;16.76;100.00
22653;BME280;11493;43.344;26.226;2023-05-29T05:00:13;99124.38;;;16.86;100.00
22653;BME280;11493;43.344;26.226;2023-05-29T05:02:44;99119.19;;;16.85;100.00
22653;BME280;11493;43.344;26.226;2023-05-29T05:05:12;99115.88;;;16.79;100.00
22653;BME280;11493;43.344;26.226;2023-05-29T05:07:39;99119.72;;;16.90;100.00
22653;BME280;11493;43.344;26.226;2023-05-29T05:10:07;99116.13;;;16.90;100.00
22653;BME280;11493;43.344;26.226;2023-05-29T05:12:34;99122.22;;;16.95;100.00
22653;BME280;11493;43.344;26.226;2023-05-29T05:15:02;99128.38;;;17.04;100.00
22653;BME280;11493;43.344;26.226;2023-05-29T05:17:30;99134.88;;;17.12;100.00
22653;BME280;11493;43.344;26.226;2023-05-29T05:19:57;99131.81;;;17.17;100.00
22653;BME280;11493;43.344;26.226;2023-05-29T05:22:24;99140.88;;;17.14;100.00
22653;BME280;11493;43.344;26.226;2023-05-29T05:24:52;99137.81;;;17.19;100.00
22653;BME280;11493;43.344;26.226;2023-05-29T05:27:23;99135.03;;;17.19;100.00
22653;BME280;11493;43.344;26.226;2023-05-29T05:29:50;99147.56;;;17.29;100.00
22653;BME280;11493;43.344;26.226;2023-05-29T05:32:18;99149.19;;;17.30;100.00
22653;BME280;11493;43.344;26.226;2023-05-29T05:34:51;99143.63;;;17.30;100.00
22653;BME280;11493;43.344;26.226;2023-05-29T05:37:18;99142.88;;;17.33;100.00
22653;BME280;11493;43.344;26.226;2023-05-29T05:39:45;99145.31;;;17.34;100.00
22653;BME280;11493;43.344;26.226;2023-05-29T05:42:12;99132.19;;;17.35;100.00
22653;BME280;11493;43.344;26.226;2023-05-29T05:44:59;99130.31;;;17.39;100.00
22653;BME280;11493;43.344;26.226;2023-05-29T05:47:27;99133.59;;;17.45;100.00
22653;BME280;11493;43.344;26.226;2023-05-29T05:49:56;99136.81;;;17.47;100.00
22653;BME280;11493;43.344;26.226;2023-05-29T05:52:24;99138.94;;;17.53;100.00
22653;BME280;11493;43.344;26.226;2023-05-29T05:54:53;99136.03;;;17.46;100.00
22653;BME280;11493;43.344;26.226;2023-05-29T05:57:20;99126.34;;;17.40;100.00
22653;BME280;11493;43.344;26.226;2023-05-29T05:59:47;99144.38;;;17.46;100.00
22653;BME280;11493;43.344;26.226;2023-05-29T06:02:14;99139.25;;;17.48;100.00
22653;BME280;11493;43.344;26.226;2023-05-29T06:04:42;99148.19;;;17.57;100.00
22653;BME280;11493;43.344;26.226;2023-05-29T06:07:10;99145.41;;;17.57;100.00
22653;BME280;11493;43.344;26.226;2023-05-29T06:09:37;99135.00;;;17.54;100.00
22653;BME280;11493;43.344;26.226;2023-05-29T06:12:06;99139.28;;;17.67;100.00
22653;BME280;11493;43.344;26.226;2023-05-29T06:14:38;99148.72;;;17.82;100.00
22653;BME280;11493;43.344;26.226;2023-05-29T06:17:05;99149.19;;;17.88;100.00
22653;BME280;11493;43.344;26.226;2023-05-29T06:19:32;99153.88;;;18.03;100.00
22653;BME280;11493;43.344;26.226;2023-05-29T06:22:01;99142.88;;;18.10;100.00
22653;BME280;11493;43.344;26.226;2023-05-29T06:24:30;99151.66;;;18.12;100.00
22653;BME280;11493;43.344;26.226;2023-05-29T06:26:58;99155.31;;;18.16;100.00
22653;BME280;11493;43.344;26.226;2023-05-29T06:29:26;99147.84;;;18.20;100.00
22653;BME280;11493;43.344;26.226;2023-05-29T06:31:53;99149.13;;;18.26;100.00
22653;BME280;11493;43.344;26.226;2023-05-29T06:34:20;99156.81;;;18.33;100.00
22653;BME280;11493;43.344;26.226;2023-05-29T06:36:47;99158.88;;;18.36;100.00
22653;BME280;11493;43.344;26.226;2023-05-29T06:39:14;99154.53;;;18.38;100.00
22653;BME280;11493;43.344;26.226;2023-05-29T06:41:42;99155.84;;;18.45;100.00
22653;BME280;11493;43.344;26.226;2023-05-29T06:44:09;99161.03;;;18.46;100.00
22653;BME280;11493;43.344;26.226;2023-05-29T06:46:38;99161.91;;;18.50;100.00
22653;BME280;11493;43.344;26.226;2023-05-29T06:49:05;99150.81;;;18.54;100.00
22653;BME280;11493;43.344;26.226;2023-05-29T06:51:33;99146.41;;;18.76;100.00
22653;BME280;11493;43.344;26.226;2023-05-29T06:54:19;99152.50;;;19.08;100.00
22653;BME280;11493;43.344;26.226;2023-05-29T06:56:46;99159.19;;;19.33;100.00
22653;BME280;11493;43.344;26.226;2023-05-29T06:59:32;99159.09;;;19.52;100.00
22653;BME280;11493;43.344;26.226;2023-05-29T07:02:00;99156.41;;;19.59;100.00
22653;BME280;11493;43.344;26.226;2023-05-29T07:04:27;99158.94;;;19.42;100.00
22653;BME280;11493;43.344;26.226;2023-05-29T07:06:55;99131.03;;;19.42;100.00
22653;BME280;11493;43.344;26.226;2023-05-29T07:09:23;99138.69;;;19.48;100.00
22653;BME280;11493;43.344;26.226;2023-05-29T07:11:52;99150.06;;;19.62;100.00
22653;BME280;11493;43.344;26.226;2023-05-29T07:14:19;99162.94;;;19.71;100.00
22653;BME280;11493;43.344;26.226;2023-05-29T07:16:46;99166.53;;;19.71;100.00
22653;BME280;11493;43.344;26.226;2023-05-29T07:19:13;99161.72;;;19.42;100.00
22653;BME280;11493;43.344;26.226;2023-05-29T07:21:48;99160.16;;;19.44;100.00
22653;BME280;11493;43.344;26.226;2023-05-29T07:24:18;99163.97;;;19.59;100.00
22653;BME280;11493;43.344;26.226;2023-05-29T07:26:45;99160.38;;;19.58;100.00
22653;BME280;11493;43.344;26.226;2023-05-29T07:29:12;99155.56;;;19.55;100.00
22653;BME280;11493;43.344;26.226;2023-05-29T07:31:40;99161.22;;;19.62;100.00
22653;BME280;11493;43.344;26.226;2023-05-29T07:34:08;99156.53;;;19.70;100.00
22653;BME280;11493;43.344;26.226;2023-05-29T07:36:35;99160.78;;;19.90;100.00
22653;BME280;11493;43.344;26.226;2023-05-29T07:39:07;99162.78;;;19.90;100.00
22653;BME280;11493;43.344;26.226;2023-05-29T07:41:34;99167.75;;;20.11;100.00
22653;BME280;11493;43.344;26.226;2023-05-29T07:44:02;99173.69;;;20.06;100.00
22653;BME280;11493;43.344;26.226;2023-05-29T07:46:30;99158.16;;;20.08;100.00
22653;BME280;11493;43.344;26.226;2023-05-29T07:49:29;99170.28;;;20.23;100.00
22653;BME280;11493;43.344;26.226;2023-05-29T07:51:57;99177.56;;;20.31;100.00
22653;BME280;11493;43.344;26.226;2023-05-29T07:54:23;99172.63;;;20.17;100.00
22653;BME280;11493;43.344;26.226;2023-05-29T07:56:51;99183.25;;;20.38;100.00
22653;BME280;11493;43.344;26.226;2023-05-29T07:59:18;99176.13;;;20.44;100.00
22653;BME280;11493;43.344;26.226;2023-05-29T08:01:46;99180.31;;;20.64;100.00
22653;BME280;11493;43.344;26.226;2023-05-29T08:04:34;99171.13;;;20.64;100.00
22653;BME280;11493;43.344;26.226;2023-05-29T08:07:02;99183.97;;;20.72;100.00
22653;BME280;11493;43.344;26.226;2023-05-29T08:09:32;99185.63;;;20.80;100.00
22653;BME280;11493;43.344;26.226;2023-05-29T08:11:59;99183.22;;;20.75;100.00
22653;BME280;11493;43.344;26.226;2023-05-29T08:14:27;99170.22;;;20.53;100.00
22653;BME280;11493;43.344;26.226;2023-05-29T08:16:55;99188.81;;;20.75;100.00
22653;BME280;11493;43.344;26.226;2023-05-29T08:19:23;99190.38;;;20.73;100.00
22653;BME280;11493;43.344;26.226;2023-05-29T08:21:50;99183.19;;;20.72;100.00
22653;BME280;11493;43.344;26.226;2023-05-29T08:24:17;99186.03;;;20.79;100.00
22653;BME280;11493;43.344;26.226;2023-05-29T08:26:44;99188.84;;;20.79;100.00
22653;BME280;11493;43.344;26.226;2023-05-29T08:29:11;99176.00;;;20.74;100.00
22653;BME280;11493;43.344;26.226;2023-05-29T08:31:38;99192.13;;;20.91;100.00
22653;BME280;11493;43.344;26.226;2023-05-29T08:34:05;99182.06;;;20.80;100.00
22653;BME280;11493;43.344;26.226;2023-05-29T08:36:33;99192.06;;;20.88;100.00
22653;BME280;11493;43.344;26.226;2023-05-29T08:39:00;99192.69;;;20.63;100.00
22653;BME280;11493;43.344;26.226;2023-05-29T08:41:34;99201.63;;;20.80;100.00
22653;BME280;11493;43.344;26.226;2023-05-29T08:44:05;99192.00;;;20.74;100.00
22653;BME280;11493;43.344;26.226;2023-05-29T08:46:34;99179.31;;;20.43;100.00
22653;BME280;11493;43.344;26.226;2023-05-29T08:49:03;99190.16;;;20.48;100.00
22653;BME280;11493;43.344;26.226;2023-05-29T08:51:37;99192.59;;;20.53;100.00
22653;BME280;11493;43.344;26.226;2023-05-29T08:54:10;99184.22;;;20.53;100.00
22653;BME280;11493;43.344;26.226;2023-05-29T08:56:38;99187.94;;;20.67;100.00
22653;BME280;11493;43.344;26.226;2023-05-29T08:59:05;99182.34;;;20.67;100.00
22653;BME280;11493;43.344;26.226;2023-05-29T09:01:34;99177.97;;;20.70;100.00
22653;BME280;11493;43.344;26.226;2023-05-29T09:04:02;99182.44;;;20.78;100.00
22653;BME280;11493;43.344;26.226;2023-05-29T09:06:29;99185.50;;;20.62;100.00
22653;BME280;11493;43.344;26.226;2023-05-29T09:08:57;99184.63;;;20.55;100.00
22653;BME280;11493;43.344;26.226;2023-05-29T09:11:24;99180.81;;;20.37;100.00
22653;BME280;11493;43.344;26.226;2023-05-29T09:13:52;99183.16;;;20.31;100.00
22653;BME280;11493;43.344;26.226;2023-05-29T09:16:19;99163.38;;;20.10;100.00
22653;BME280;11493;43.344;26.226;2023-05-29T09:18:47;99185.28;;;20.08;100.00
22653;BME280;11493;43.344;26.226;2023-05-29T09:21:28;99186.09;;;20.05;100.00
22653;BME280;11493;43.344;26.226;2023-05-29T09:24:04;99170.28;;;19.86;100.00
22653;BME280;11493;43.344;26.226;2023-05-29T09:26:32;99169.97;;;19.91;100.00
22653;BME280;11493;43.344;26.226;2023-05-29T09:28:59;99159.88;;;19.83;100.00
22653;BME280;11493;43.344;26.226;2023-05-29T09:31:26;99172.19;;;19.78;100.00
22653;BME280;11493;43.344;26.226;2023-05-29T09:33:53;99158.47;;;19.66;100.00
22653;BME280;11493;43.344;26.226;2023-05-29T09:36:23;99165.34;;;19.72;100.00
22653;BME280;11493;43.344;26.226;2023-05-29T09:38:51;99154.22;;;19.76;100.00
22653;BME280;11493;43.344;26.226;2023-05-29T09:41:25;99159.03;;;19.79;100.00
22653;BME280;11493;43.344;26.226;2023-05-29T09:43:52;99155.16;;;19.87;100.00
22653;BME280;11493;43.344;26.226;2023-05-29T09:46:21;99145.25;;;19.93;100.00
22653;BME280;11493;43.344;26.226;2023-05-29T09:48:48;99146.19;;;20.04;100.00
22653;BME280;11493;43.344;26.226;2023-05-29T09:51:22;99140.97;;;20.06;100.00
22653;BME280;11493;43.344;26.226;2023-05-29T09:53:52;99143.81;;;20.10;100.00
22653;BME280;11493;43.344;26.226;2023-05-29T09:56:23;99141.81;;;20.10;100.00
22653;BME280;11493;43.344;26.226;2023-05-29T09:58:53;99147.50;;;20.17;100.00
22653;BME280;11493;43.344;26.226;2023-05-29T10:01:20;99145.84;;;20.13;100.00
22653;BME280;11493;43.344;26.226;2023-05-29T10:03:48;99137.97;;;20.22;100.00
22653;BME280;11493;43.344;26.226;2023-05-29T10:06:18;99141.63;;;20.29;100.00
22653;BME280;11493;43.344;26.226;2023-05-29T10:08:47;99128.06;;;20.31;100.00
22653;BME280;11493;43.344;26.226;2023-05-29T10:11:20;99127.88;;;20.51;100.00
22653;BME280;11493;43.344;26.226;2023-05-29T10:13:52;99119.97;;;20.60;100.00
22653;BME280;11493;43.344;26.226;2023-05-29T10:16:21;99137.59;;;20.64;100.00
22653;BME280;11493;43.344;26.226;2023-05-29T10:18:55;99139.13;;;20.58;100.00
22653;BME280;11493;43.344;26.226;2023-05-29T10:21:27;99155.09;;;20.57;100.00
22653;BME280;11493;43.344;26.226;2023-05-29T10:23:54;99152.16;;;20.43;100.00
22653;BME280;11493;43.344;26.226;2023-05-29T10:26:27;99160.50;;;20.40;100.00
22653;BME280;11493;43.344;26.226;2023-05-29T10:29:02;99149.47;;;20.17;100.00
22653;BME280;11493;43.344;26.226;2023-05-29T10:31:46;99142.59;;;20.07;100.00
22653;BME280;11493;43.344;26.226;2023-05-29T10:34:44;99130.63;;;20.07;100.00
22653;BME280;11493;43.344;26.226;2023-05-29T10:37:29;99152.31;;;20.20;100.00
22653;BME280;11493;43.344;26.226;2023-05-29T10:40:07;99132.22;;;20.08;100.00
22653;BME280;11493;43.344;26.226;2023-05-29T10:42:49;99152.69;;;20.19;100.00
22653;BME280;11493;43.344;26.226;2023-05-29T10:47:55;99146.06;;;20.34;100.00
22653;BME280;11493;43.344;26.226;2023-05-29T10:50:38;99140.56;;;20.41;100.00
22653;BME280;11493;43.344;26.226;2023-05-29T10:53:14;99145.00;;;20.46;100.00
22653;BME280;11493;43.344;26.226;2023-05-29T10:55:42;99134.63;;;20.46;100.00
22653;BME280;11493;43.344;26.226;2023-05-29T10:58:14;99129.50;;;20.52;100.00
22653;BME280;11493;43.344;26.226;2023-05-29T11:00:42;99145.97;;;20.64;100.00
22653;BME280;11493;43.344;26.226;2023-05-29T11:03:09;99127.88;;;20.51;100.00
22653;BME280;11493;43.344;26.226;2023-05-29T11:06:02;99129.97;;;20.61;100.00
22653;BME280;11493;43.344;26.226;2023-05-29T11:11:16;99138.06;;;20.73;100.00
22653;BME280;11493;43.344;26.226;2023-05-29T11:13:57;99135.22;;;20.70;100.00
22653;BME280;11493;43.344;26.226;2023-05-29T11:19:07;99140.09;;;20.76;100.00
22653;BME280;11493;43.344;26.226;2023-05-29T11:24:26;99130.13;;;20.86;100.00
22653;BME280;11493;43.344;26.226;2023-05-29T11:26:54;99135.44;;;20.98;100.00
22653;BME280;11493;43.344;26.226;2023-05-29T11:29:29;99134.69;;;21.08;100.00
22653;BME280;11493;43.344;26.226;2023-05-29T11:32:04;99123.81;;;20.96;100.00
22653;BME280;11493;43.344;26.226;2023-05-29T11:34:32;99130.72;;;21.13;100.00
22653;BME280;11493;43.344;26.226;2023-05-29T11:37:01;99137.50;;;21.12;100.00
22653;BME280;11493;43.344;26.226;2023-05-29T11:39:29;99127.91;;;21.09;100.00
22653;BME280;11493;43.344;26.226;2023-05-29T11:41:58;99131.94;;;21.15;100.00
22653;BME280;11493;43.344;26.226;2023-05-29T11:44:27;99122.75;;;21.15;100.00
22653;BME280;11493;43.344;26.226;2023-05-29T11:47:01;99130.78;;;21.20;100.00
22653;BME280;11493;43.344;26.226;2023-05-29T11:49:31;99123.97;;;21.17;100.00
22653;BME280;11493;43.344;26.226;2023-05-29T11:52:10;99127.25;;;21.30;100.00
22653;BME280;11493;43.344;26.226;2023-05-29T11:54:40;99115.22;;;21.22;100.00
22653;BME280;11493;43.344;26.226;2023-05-29T11:57:19;99106.44;;;21.24;100.00
22653;BME280;11493;43.344;26.226;2023-05-29T11:59:50;99114.84;;;21.27;100.00
22653;BME280;11493;43.344;26.226;2023-05-29T12:02:19;99108.88;;;21.29;100.00
22653;BME280;11493;43.344;26.226;2023-05-29T12:05:01;99114.91;;;21.38;100.00
22653;BME280;11493;43.344;26.226;2023-05-29T12:07:28;99121.38;;;21.49;100.00
22653;BME280;11493;43.344;26.226;2023-05-29T12:09:55;99092.91;;;21.33;100.00
22653;BME280;11493;43.344;26.226;2023-05-29T12:12:24;99102.16;;;21.44;100.00
22653;BME280;11493;43.344;26.226;2023-05-29T12:14:51;99121.72;;;21.37;100.00
22653;BME280;11493;43.344;26.226;2023-05-29T12:17:20;99111.75;;;21.43;100.00
22653;BME280;11493;43.344;26.226;2023-05-29T12:19:47;99115.38;;;21.58;100.00
22653;BME280;11493;43.344;26.226;2023-05-29T12:22:15;99118.25;;;21.72;100.00
22653;BME280;11493;43.344;26.226;2023-05-29T12:24:42;99100.63;;;21.72;100.00
22653;BME280;11493;43.344;26.226;2023-05-29T12:27:09;99104.66;;;21.78;100.00
22653;BME280;11493;43.344;26.226;2023-05-29T12:29:37;99108.69;;;21.84;100.00
22653;BME280;11493;43.344;26.226;2023-05-29T12:32:09;99114.31;;;21.91;100.00
22653;BME280;11493;43.344;26.226;2023-05-29T12:34:36;99115.97;;;22.03;100.00
22653;BME280;11493;43.344;26.226;2023-05-29T12:37:09;99109.56;;;22.06;100.00
22653;BME280;11493;43.344;26.226;2023-05-29T12:39:39;99087.91;;;21.99;100.00
22653;BME280;11493;43.344;26.226;2023-05-29T12:42:06;99098.38;;;22.09;100.00
22653;BME280;11493;43.344;26.226;2023-05-29T12:44:34;99118.81;;;22.20;100.00
22653;BME280;11493;43.344;26.226;2023-05-29T12:47:01;99111.97;;;22.28;99.65
22653;BME280;11493;43.344;26.226;2023-05-29T12:49:28;99111.19;;;22.35;98.45
22653;BME280;11493;43.344;26.226;2023-05-29T12:52:05;99112.81;;;22.43;98.70
22653;BME280;11493;43.344;26.226;2023-05-29T12:54:34;99105.59;;;22.42;99.26
22653;BME280;11493;43.344;26.226;2023-05-29T12:57:01;99119.22;;;22.40;98.08
22653;BME280;11493;43.344;26.226;2023-05-29T12:59:28;99104.00;;;22.45;97.49
22653;BME280;11493;43.344;26.226;2023-05-29T13:01:55;99110.81;;;22.47;95.84
22653;BME280;11493;43.344;26.226;2023-05-29T13:04:22;99101.56;;;22.33;97.19
22653;BME280;11493;43.344;26.226;2023-05-29T13:06:49;99101.19;;;22.16;98.73
22653;BME280;11493;43.344;26.226;2023-05-29T13:09:16;99099.97;;;22.03;98.49